createdAt,value
2022-07-26T00:00:08.808Z,100519.94
2022-07-26T00:02:35.671Z,100546.63
2022-07-26T00:05:02.523Z,100511.53
2022-07-26T00:07:29.068Z,100551.69
2022-07-26T00:10:05.052Z,100547.19
2022-07-26T00:12:32.207Z,100545.50
2022-07-26T00:14:58.982Z,100539.72
2022-07-26T00:17:25.893Z,100546.03
2022-07-26T00:19:52.442Z,100542.81
2022-07-26T00:22:34.335Z,100538.84
2022-07-26T00:25:03.675Z,100531.78
2022-07-26T00:27:30.559Z,100522.84
2022-07-26T00:29:57.122Z,100509.63
2022-07-26T00:32:23.760Z,100539.50
2022-07-26T00:34:52.013Z,100546.72
2022-07-26T00:37:20.467Z,100535.19
2022-07-26T00:39:47.532Z,100368.81
2022-07-26T00:42:14.131Z,100490.75
2022-07-26T00:44:42.543Z,100544.28
2022-07-26T00:47:09.813Z,100537.63
2022-07-26T00:49:36.672Z,100548.31
2022-07-26T00:52:05.317Z,100550.75
2022-07-26T00:54:32.453Z,100546.41
2022-07-26T00:57:00.312Z,100533.78
2022-07-26T00:59:27.051Z,100554.41
2022-07-26T01:01:53.842Z,100459.72
2022-07-26T01:04:20.919Z,100554.47
2022-07-26T01:06:48.951Z,100546.56
2022-07-26T01:09:16.545Z,100546.72
2022-07-26T01:11:43.489Z,100506.09
2022-07-26T01:14:10.722Z,100534.09
2022-07-26T01:16:37.649Z,100549.63
2022-07-26T01:19:04.594Z,100544.31
2022-07-26T01:21:32.041Z,100511.84
2022-07-26T01:23:58.749Z,100522.59
2022-07-26T01:26:25.790Z,100527.81
2022-07-26T01:28:52.735Z,100538.91
2022-07-26T01:31:19.463Z,100533.69
2022-07-26T01:33:46.246Z,100529.97
2022-07-26T01:36:12.834Z,100537.41
2022-07-26T01:38:42.692Z,100540.00
2022-07-26T01:41:09.727Z,100539.19
2022-07-26T01:43:37.265Z,100542.50
2022-07-26T01:46:05.558Z,100543.22
2022-07-26T01:48:32.257Z,100535.97
2022-07-26T01:50:59.058Z,100531.22
2022-07-26T01:53:25.627Z,100525.66
2022-07-26T01:55:52.526Z,100523.91
2022-07-26T01:58:19.304Z,100547.03
2022-07-26T02:00:45.886Z,100569.19
2022-07-26T02:03:12.536Z,100560.63
2022-07-26T02:05:39.515Z,100546.63
2022-07-26T02:08:06.191Z,100559.06
2022-07-26T02:10:52.497Z,100511.88
2022-07-26T02:13:19.371Z,100538.41
2022-07-26T02:15:46.066Z,100560.38
2022-07-26T02:18:12.864Z,100566.69
2022-07-26T02:20:39.365Z,100562.81
2022-07-26T02:23:06.441Z,100569.78
2022-07-26T02:25:33.016Z,100527.94
2022-07-26T02:28:01.196Z,100563.41
2022-07-26T02:30:28.161Z,100543.81
2022-07-26T02:32:55.413Z,100538.16
2022-07-26T02:35:21.999Z,100537.63
2022-07-26T02:37:48.789Z,100563.88
2022-07-26T02:40:19.090Z,100529.88
2022-07-26T02:42:46.392Z,100571.50
2022-07-26T02:45:13.295Z,100570.97
2022-07-26T02:47:52.476Z,100537.88
2022-07-26T02:50:24.342Z,100576.50
2022-07-26T02:52:51.800Z,100576.66
2022-07-26T02:55:21.551Z,100576.75
2022-07-26T02:57:48.172Z,100557.94
2022-07-26T03:00:17.706Z,100567.59
2022-07-26T03:02:44.382Z,100575.69
2022-07-26T03:05:11.651Z,100579.38
2022-07-26T03:07:38.174Z,100582.38
2022-07-26T03:10:05.742Z,100576.53
2022-07-26T03:12:32.306Z,100546.41
2022-07-26T03:14:58.849Z,100553.06
2022-07-26T03:17:25.764Z,100561.63
2022-07-26T03:19:52.595Z,100579.00
2022-07-26T03:22:19.297Z,100588.34
2022-07-26T03:24:46.108Z,100584.22
2022-07-26T03:27:12.639Z,100565.66
2022-07-26T03:29:39.265Z,100587.91
2022-07-26T03:32:06.275Z,100588.66
2022-07-26T03:34:33.127Z,100591.16
2022-07-26T03:36:59.819Z,100565.09
2022-07-26T03:39:26.353Z,100590.97
2022-07-26T03:41:52.887Z,100593.84
2022-07-26T03:44:19.463Z,100573.59
2022-07-26T03:46:46.092Z,100579.94
2022-07-26T03:49:16.681Z,100603.59
2022-07-26T03:51:44.008Z,100568.03
2022-07-26T03:54:11.301Z,100597.41
2022-07-26T03:56:38.973Z,100567.06
2022-07-26T03:59:07.888Z,100550.19
2022-07-26T04:01:35.337Z,100603.19
2022-07-26T04:04:02.878Z,100577.84
2022-07-26T04:06:29.564Z,100614.38
2022-07-26T04:08:56.754Z,100609.94
2022-07-26T04:11:26.725Z,100612.72
2022-07-26T04:13:55.809Z,100594.28
2022-07-26T04:16:22.670Z,100625.38
2022-07-26T04:18:49.398Z,100621.16
2022-07-26T04:21:16.576Z,100588.41
2022-07-26T04:23:45.410Z,100623.44
2022-07-26T04:26:15.831Z,100627.69
2022-07-26T04:28:42.716Z,100632.31
2022-07-26T04:31:09.367Z,100634.28
2022-07-26T04:33:36.104Z,100636.41
2022-07-26T04:36:03.456Z,100598.91
2022-07-26T04:38:30.680Z,100628.97
2022-07-26T04:40:57.985Z,100653.50
2022-07-26T04:43:25.028Z,100621.63
2022-07-26T04:45:51.835Z,100629.00
2022-07-26T04:48:18.447Z,100603.03
2022-07-26T04:50:45.070Z,100630.03
2022-07-26T04:53:11.660Z,100631.03
2022-07-26T04:55:38.724Z,100647.63
2022-07-26T04:58:05.286Z,100660.63
2022-07-26T05:00:31.860Z,100665.09
2022-07-26T05:02:59.739Z,100651.97
2022-07-26T05:05:28.821Z,100649.13
2022-07-26T05:07:57.100Z,100665.09
2022-07-26T05:10:30.816Z,100669.13
2022-07-26T05:12:57.406Z,100660.44
2022-07-26T05:15:24.080Z,100664.13
2022-07-26T05:17:51.300Z,100669.81
2022-07-26T05:20:17.907Z,100665.13
2022-07-26T05:22:44.754Z,100658.41
2022-07-26T05:25:11.341Z,100662.50
2022-07-26T05:27:39.038Z,100643.97
2022-07-26T05:30:06.066Z,100665.94
2022-07-26T05:32:32.598Z,100662.72
2022-07-26T05:34:59.222Z,100626.78
2022-07-26T05:37:25.829Z,100665.06
2022-07-26T05:39:52.341Z,100624.09
2022-07-26T05:42:18.892Z,100662.53
2022-07-26T05:44:45.516Z,100626.31
2022-07-26T05:47:12.883Z,100657.84
2022-07-26T05:49:40.493Z,100636.94
2022-07-26T05:52:08.154Z,100664.69
2022-07-26T05:54:35.007Z,100643.78
2022-07-26T05:57:01.603Z,100632.41
2022-07-26T05:59:28.572Z,100673.41
2022-07-26T06:01:56.639Z,100668.72
2022-07-26T06:04:25.011Z,100671.50
2022-07-26T06:06:54.560Z,100662.13
2022-07-26T06:09:21.686Z,100655.72
2022-07-26T06:11:48.175Z,100659.66
2022-07-26T06:14:15.005Z,100635.00
2022-07-26T06:16:41.970Z,100659.06
2022-07-26T06:19:08.764Z,100656.59
2022-07-26T06:21:35.299Z,100673.47
2022-07-26T06:24:01.852Z,100685.84
2022-07-26T06:26:28.458Z,100668.44
2022-07-26T06:28:55.113Z,100685.66
2022-07-26T06:31:21.720Z,100677.88
2022-07-26T06:33:48.855Z,100663.78
2022-07-26T06:36:15.507Z,100672.44
2022-07-26T06:38:42.105Z,100649.94
2022-07-26T06:41:08.839Z,100673.59
2022-07-26T06:43:35.353Z,100639.50
2022-07-26T06:46:02.090Z,100691.44
2022-07-26T06:48:28.735Z,100655.66
2022-07-26T06:50:55.546Z,100690.72
2022-07-26T06:53:22.153Z,100656.66
2022-07-26T06:55:48.901Z,100664.03
2022-07-26T06:58:15.459Z,100647.56
2022-07-26T07:00:42.153Z,100694.03
2022-07-26T07:03:08.689Z,100699.78
2022-07-26T07:05:35.387Z,100700.09
2022-07-26T07:08:01.930Z,100673.38
2022-07-26T07:10:29.223Z,100709.13
2022-07-26T07:12:56.092Z,100708.53
2022-07-26T07:15:22.733Z,100699.06
2022-07-26T07:17:51.587Z,100710.63
2022-07-26T07:20:18.384Z,100701.84
2022-07-26T07:22:45.045Z,100698.72
2022-07-26T07:25:11.716Z,100673.41
2022-07-26T07:27:42.077Z,100690.97
2022-07-26T07:30:10.947Z,100719.72
2022-07-26T07:32:38.042Z,100667.81
2022-07-26T07:35:07.967Z,100691.06
2022-07-26T07:37:53.646Z,100722.41
2022-07-26T07:40:21.030Z,100713.28
2022-07-26T07:42:47.617Z,100690.69
2022-07-26T07:45:14.959Z,100696.97
2022-07-26T07:47:41.646Z,100727.75
2022-07-26T07:50:08.746Z,100724.81
2022-07-26T07:52:35.408Z,100731.97
2022-07-26T07:55:21.837Z,100713.63
2022-07-26T07:57:49.835Z,100726.63
2022-07-26T08:00:19.271Z,100717.41
2022-07-26T08:02:46.851Z,100699.16
2022-07-26T08:05:15.306Z,100739.00
2022-07-26T08:07:42.653Z,100741.38
2022-07-26T08:10:09.668Z,100694.38
2022-07-26T08:12:36.531Z,100746.00
2022-07-26T08:15:07.524Z,100737.50
2022-07-26T08:17:39.831Z,100726.34
2022-07-26T08:20:14.747Z,100740.66
2022-07-26T08:22:42.624Z,100712.59
2022-07-26T08:25:09.693Z,100732.31
2022-07-26T08:27:40.848Z,100673.13
2022-07-26T08:30:08.629Z,100728.69
2022-07-26T08:32:35.846Z,100734.34
2022-07-26T08:35:17.890Z,100703.28
2022-07-26T08:37:46.550Z,100727.34
2022-07-26T08:40:13.292Z,100732.94
2022-07-26T08:42:40.124Z,100738.50
2022-07-26T08:45:07.223Z,100737.09
2022-07-26T08:47:36.269Z,100672.22
2022-07-26T08:50:09.738Z,100733.22
2022-07-26T08:52:40.007Z,100697.31
2022-07-26T08:55:07.240Z,100731.28
2022-07-26T08:57:34.403Z,100721.19
2022-07-26T09:00:19.308Z,100737.78
2022-07-26T09:02:46.572Z,100714.34
2022-07-26T09:05:13.971Z,100732.75
2022-07-26T09:07:41.388Z,100730.63
2022-07-26T09:10:11.390Z,100734.44
2022-07-26T09:12:38.751Z,100732.31
2022-07-26T09:15:07.744Z,100733.50
2022-07-26T09:17:46.879Z,100740.16
2022-07-26T09:20:16.313Z,100748.25
2022-07-26T09:23:06.075Z,100738.41
2022-07-26T09:25:35.733Z,100694.88
2022-07-26T09:28:03.397Z,100733.28
2022-07-26T09:30:32.041Z,100726.00
2022-07-26T09:33:04.507Z,100709.34
2022-07-26T09:35:52.301Z,100725.84
2022-07-26T09:38:19.536Z,100739.88
2022-07-26T09:40:46.837Z,100741.06
2022-07-26T09:43:19.710Z,100725.16
2022-07-26T09:46:03.816Z,100726.88
2022-07-26T09:48:52.190Z,100731.84
2022-07-26T09:51:35.209Z,100753.88
2022-07-26T09:54:02.403Z,100661.16
2022-07-26T09:57:01.734Z,100749.78
2022-07-26T09:59:28.850Z,100752.28
2022-07-26T10:01:57.721Z,100749.56
2022-07-26T10:04:24.970Z,100747.28
2022-07-26T10:06:51.751Z,100728.38
2022-07-26T10:09:18.773Z,100736.84
2022-07-26T10:11:55.366Z,100749.91
2022-07-26T10:14:34.028Z,100754.38
2022-07-26T10:17:01.772Z,100750.13
2022-07-26T10:19:41.696Z,100773.75
2022-07-26T10:22:26.733Z,100773.78
2022-07-26T10:24:58.033Z,100774.78
2022-07-26T10:27:51.341Z,100789.16
2022-07-26T10:30:22.423Z,100804.13
2022-07-26T10:32:52.119Z,100796.72
2022-07-26T10:35:34.025Z,100786.81
2022-07-26T10:38:02.735Z,100807.84
2022-07-26T10:40:32.295Z,100791.44
2022-07-26T10:46:24.896Z,100764.25
2022-07-26T10:49:03.584Z,100807.06
2022-07-26T10:51:38.764Z,100805.91
2022-07-26T10:54:11.127Z,100785.78
2022-07-26T10:56:38.403Z,100808.31
2022-07-26T10:59:05.758Z,100805.41
2022-07-26T11:01:36.739Z,100821.47
2022-07-26T11:04:03.543Z,100835.75
2022-07-26T11:06:30.559Z,100836.41
2022-07-26T11:08:57.639Z,100806.38
2022-07-26T11:11:32.064Z,100818.53
2022-07-26T11:14:10.236Z,100853.25
2022-07-26T11:16:42.053Z,100852.06
2022-07-26T11:19:17.088Z,100835.34
2022-07-26T11:21:45.072Z,100863.78
2022-07-26T11:24:12.399Z,100841.03
2022-07-26T11:26:43.689Z,100851.38
2022-07-26T11:29:10.764Z,100857.84
2022-07-26T11:31:55.694Z,100844.31
2022-07-26T11:34:33.741Z,100845.41
2022-07-26T11:37:02.859Z,100748.94
2022-07-26T11:39:31.414Z,100843.47
2022-07-26T11:41:59.730Z,100851.94
2022-07-26T11:44:26.542Z,100827.03
2022-07-26T11:46:54.009Z,100862.91
2022-07-26T11:49:25.088Z,100860.50
2022-07-26T11:52:02.019Z,100861.00
2022-07-26T11:54:31.070Z,100848.19
2022-07-26T11:56:57.717Z,100848.75
2022-07-26T11:59:32.054Z,100855.97
2022-07-26T12:01:59.732Z,100838.63
2022-07-26T12:04:38.411Z,100872.88
2022-07-26T12:07:13.416Z,100821.56
2022-07-26T12:09:52.046Z,100862.63
2022-07-26T12:12:22.560Z,100874.28
2022-07-26T12:14:57.591Z,100873.34
2022-07-26T12:17:24.209Z,100861.72
2022-07-26T12:19:50.885Z,100899.72
2022-07-26T12:22:20.186Z,100897.06
2022-07-26T12:24:53.275Z,100891.53
2022-07-26T12:27:31.140Z,100892.59
2022-07-26T12:30:00.760Z,100891.44
2022-07-26T12:32:34.470Z,100905.97
2022-07-26T12:35:17.238Z,100899.38
2022-07-26T12:37:46.775Z,100905.97
2022-07-26T12:40:23.214Z,100906.75
2022-07-26T12:42:49.721Z,100910.50
2022-07-26T12:45:18.335Z,100905.38
2022-07-26T12:47:47.510Z,100899.56
2022-07-26T12:50:15.368Z,100897.69
2022-07-26T12:52:42.258Z,100893.28
2022-07-26T12:55:13.554Z,100887.50
2022-07-26T12:57:47.826Z,100887.78
2022-07-26T13:00:16.159Z,100883.69
2022-07-26T13:02:43.285Z,100875.84
2022-07-26T13:05:11.013Z,100878.38
2022-07-26T13:07:38.613Z,100885.03
2022-07-26T13:10:32.029Z,100866.44
2022-07-26T13:12:52.855Z,100874.50
2022-07-26T13:15:19.438Z,100888.16
2022-07-26T13:17:46.035Z,100888.88
2022-07-26T13:20:12.615Z,100872.97
2022-07-26T13:22:40.247Z,100864.16
2022-07-26T13:25:08.418Z,100883.72
2022-07-26T13:27:37.370Z,100889.13
2022-07-26T13:30:06.291Z,100891.09
2022-07-26T13:32:33.073Z,100863.75
2022-07-26T13:34:59.566Z,100894.00
2022-07-26T13:37:26.065Z,100895.31
2022-07-26T13:39:52.984Z,100894.66
2022-07-26T13:42:19.587Z,100890.44
2022-07-26T13:44:46.158Z,100882.88
2022-07-26T13:47:12.931Z,100895.38
2022-07-26T13:49:39.555Z,100878.47
2022-07-26T13:52:10.907Z,100871.00
2022-07-26T13:54:42.488Z,100896.81
2022-07-26T13:57:09.054Z,100907.28
2022-07-26T13:59:35.561Z,100912.75
2022-07-26T14:02:04.618Z,100879.06
2022-07-26T14:04:31.368Z,100876.94
2022-07-26T14:06:58.062Z,100897.25
2022-07-26T14:09:24.799Z,100877.44
2022-07-26T14:11:52.397Z,100885.41
2022-07-26T14:14:18.960Z,100859.25
2022-07-26T14:16:45.564Z,100890.16
2022-07-26T14:19:14.916Z,100855.56
2022-07-26T14:21:47.255Z,100906.66
2022-07-26T14:24:26.396Z,100890.09
2022-07-26T14:26:58.288Z,100879.53
2022-07-26T14:29:26.024Z,100913.00
2022-07-26T14:31:52.941Z,100888.44
2022-07-26T14:34:19.703Z,100917.94
2022-07-26T14:36:46.280Z,100899.38
2022-07-26T14:39:12.846Z,100923.47
2022-07-26T14:41:39.452Z,100906.47
2022-07-26T14:44:06.526Z,100927.19
2022-07-26T14:46:33.269Z,100922.31
2022-07-26T14:48:59.881Z,100915.56
2022-07-26T14:51:26.657Z,100898.59
2022-07-26T14:53:53.232Z,100892.53
2022-07-26T14:56:20.310Z,100902.56
2022-07-26T14:58:46.851Z,100884.25
2022-07-26T15:01:13.588Z,100904.63
2022-07-26T15:03:40.456Z,100922.41
2022-07-26T15:06:06.979Z,100936.31
2022-07-26T15:08:33.500Z,100933.78
2022-07-26T15:11:00.261Z,100932.13
2022-07-26T15:13:27.134Z,100918.78
2022-07-26T15:15:53.665Z,100926.97
2022-07-26T15:18:20.447Z,100931.34
2022-07-26T15:20:47.062Z,100928.94
2022-07-26T15:23:15.248Z,100930.91
2022-07-26T15:25:41.991Z,100902.41
2022-07-26T15:28:08.923Z,100913.03
2022-07-26T15:30:36.449Z,100916.72
2022-07-26T15:33:03.155Z,100886.31
2022-07-26T15:35:30.192Z,100923.38
2022-07-26T15:37:57.674Z,100920.97
2022-07-26T15:40:24.775Z,100922.94
2022-07-26T15:42:52.205Z,100917.94
2022-07-26T15:45:20.221Z,100902.81
2022-07-26T15:48:03.166Z,100923.72
2022-07-26T15:50:34.833Z,100893.94
2022-07-26T15:53:01.459Z,100920.44
2022-07-26T15:55:28.179Z,100883.19
2022-07-26T15:57:55.071Z,100909.97
2022-07-26T16:00:21.778Z,100937.75
2022-07-26T16:02:51.268Z,100934.97
2022-07-26T16:05:17.912Z,100908.28
2022-07-26T16:07:44.841Z,100933.44
2022-07-26T16:10:12.912Z,100920.47
2022-07-26T16:12:40.576Z,100932.09
2022-07-26T16:15:09.464Z,100914.53
2022-07-26T16:17:36.269Z,100919.53
2022-07-26T16:20:03.435Z,100911.47
2022-07-26T16:22:31.626Z,100919.53
2022-07-26T16:24:58.184Z,100905.34
2022-07-26T16:27:24.716Z,100904.97
2022-07-26T16:29:52.465Z,100932.59
2022-07-26T16:32:21.137Z,100933.94
2022-07-26T16:34:48.130Z,100946.75
2022-07-26T16:37:15.282Z,100937.78
2022-07-26T16:39:41.889Z,100938.16
2022-07-26T16:42:08.529Z,100935.25
2022-07-26T16:44:36.249Z,100945.41
2022-07-26T16:47:03.576Z,100948.69
2022-07-26T16:49:30.419Z,100940.06
2022-07-26T16:51:57.608Z,100921.34
2022-07-26T16:54:24.440Z,100948.13
2022-07-26T16:56:51.035Z,100951.53
2022-07-26T16:59:18.165Z,100914.53
2022-07-26T17:01:44.942Z,100938.38
2022-07-26T17:04:11.565Z,100918.56
2022-07-26T17:06:38.198Z,100944.84
2022-07-26T17:09:04.784Z,100947.53
2022-07-26T17:11:31.432Z,100929.03
2022-07-26T17:13:58.151Z,100948.38
2022-07-26T17:16:25.038Z,100889.50
2022-07-26T17:18:53.271Z,100957.84
2022-07-26T17:21:20.412Z,100955.41
2022-07-26T17:23:47.215Z,100912.88
2022-07-26T17:26:13.874Z,100954.66
2022-07-26T17:28:40.546Z,100924.66
2022-07-26T17:31:07.135Z,100948.00
2022-07-26T17:33:33.738Z,100963.06
2022-07-26T17:36:03.213Z,100962.84
2022-07-26T17:38:33.530Z,100964.31
2022-07-26T17:41:00.772Z,100963.38
2022-07-26T17:43:36.818Z,100935.84
2022-07-26T17:46:04.049Z,100963.16
2022-07-26T17:48:30.760Z,100967.84
2022-07-26T17:50:57.459Z,100961.56
2022-07-26T17:53:31.711Z,100959.81
2022-07-26T17:56:02.862Z,100957.38
2022-07-26T17:58:29.404Z,100964.88
2022-07-26T18:00:56.092Z,100967.28
2022-07-26T18:03:23.203Z,100921.78
2022-07-26T18:05:50.639Z,100953.75
2022-07-26T18:10:48.904Z,100941.66
2022-07-26T18:13:17.801Z,100971.63
2022-07-26T18:15:44.694Z,100970.56
2022-07-26T18:18:11.343Z,100975.97
2022-07-26T18:20:38.016Z,100964.69
2022-07-26T18:23:04.748Z,100975.22
2022-07-26T18:25:31.254Z,100930.31
2022-07-26T18:27:59.225Z,100977.09
2022-07-26T18:30:32.080Z,100911.50
2022-07-26T18:32:59.562Z,100974.28
2022-07-26T18:35:26.149Z,100962.00
2022-07-26T18:37:53.018Z,100931.97
2022-07-26T18:40:24.963Z,100959.22
2022-07-26T18:42:52.202Z,100930.38
2022-07-26T18:45:18.729Z,100958.50
2022-07-26T18:47:45.251Z,100923.78
2022-07-26T18:50:15.299Z,100952.72
2022-07-26T18:52:44.415Z,100959.19
2022-07-26T18:55:12.553Z,100964.84
2022-07-26T18:57:41.682Z,100966.63
2022-07-26T19:00:10.609Z,100965.34
2022-07-26T19:02:37.268Z,100969.81
2022-07-26T19:05:05.220Z,100965.38
2022-07-26T19:07:31.992Z,100931.31
2022-07-26T19:09:59.745Z,100972.34
2022-07-26T19:12:29.251Z,100965.63
2022-07-26T19:14:55.879Z,100970.47
2022-07-26T19:17:22.867Z,100971.47
2022-07-26T19:19:49.499Z,100977.91
2022-07-26T19:22:16.016Z,100979.00
2022-07-26T19:24:42.560Z,100976.47
2022-07-26T19:27:09.494Z,100991.84
2022-07-26T19:29:37.559Z,100965.75
2022-07-26T19:32:05.395Z,100992.28
2022-07-26T19:34:32.106Z,100978.66
2022-07-26T19:36:58.699Z,100999.44
2022-07-26T19:39:25.424Z,100985.72
2022-07-26T19:41:52.243Z,100996.09
2022-07-26T19:44:19.084Z,101001.59
2022-07-26T19:46:47.395Z,101002.50
2022-07-26T19:49:16.074Z,100983.56
2022-07-26T19:51:43.816Z,101018.69
2022-07-26T19:54:10.488Z,100963.66
2022-07-26T19:56:37.184Z,101027.53
2022-07-26T19:59:03.831Z,101024.25
2022-07-26T20:01:30.489Z,101032.66
2022-07-26T20:03:57.103Z,100989.88
2022-07-26T20:06:23.943Z,101037.72
2022-07-26T20:08:50.763Z,101030.47
2022-07-26T20:11:19.836Z,101023.53
2022-07-26T20:13:47.053Z,101013.69
2022-07-26T20:16:13.687Z,101019.34
2022-07-26T20:18:40.300Z,101014.56
2022-07-26T20:21:06.916Z,101041.16
2022-07-26T20:23:33.977Z,101042.88
2022-07-26T20:26:01.253Z,101034.66
2022-07-26T20:28:28.060Z,100996.00
2022-07-26T20:30:55.083Z,101044.44
2022-07-26T20:33:21.954Z,101022.78
2022-07-26T20:35:52.943Z,101043.06
2022-07-26T20:38:21.552Z,101044.00
2022-07-26T20:40:48.166Z,101020.47
2022-07-26T20:43:14.934Z,101014.34
2022-07-26T20:45:41.496Z,101029.03
2022-07-26T20:48:08.523Z,100995.91
2022-07-26T20:50:36.468Z,101046.91
2022-07-26T20:53:03.468Z,101008.50
2022-07-26T20:55:30.067Z,101048.06
2022-07-26T20:57:56.760Z,101041.09
2022-07-26T21:00:24.797Z,101012.94
2022-07-26T21:02:53.693Z,101020.41
2022-07-26T21:05:21.067Z,101057.88
2022-07-26T21:07:55.648Z,101024.47
2022-07-26T21:10:27.711Z,101057.31
2022-07-26T21:12:57.219Z,101063.22
2022-07-26T21:15:23.848Z,101064.53
2022-07-26T21:17:50.383Z,101075.88
2022-07-26T21:20:17.153Z,101067.25
2022-07-26T21:22:43.648Z,101069.94
2022-07-26T21:25:10.325Z,101070.09
2022-07-26T21:27:38.267Z,101078.41
2022-07-26T21:30:06.119Z,101074.09
2022-07-26T21:32:32.684Z,101073.06
2022-07-26T21:34:59.467Z,101075.28
2022-07-26T21:37:26.342Z,101074.88
2022-07-26T21:39:53.054Z,101083.47
2022-07-26T21:42:19.632Z,101073.19
2022-07-26T21:44:46.198Z,101089.03
2022-07-26T21:47:12.704Z,101058.56
2022-07-26T21:49:39.252Z,101087.97
2022-07-26T21:52:05.864Z,101052.56
2022-07-26T21:54:32.457Z,101065.88
2022-07-26T21:56:59.009Z,101098.06
2022-07-26T21:59:25.803Z,101108.34
2022-07-26T22:01:52.397Z,101102.03
2022-07-26T22:04:18.994Z,101116.81
2022-07-26T22:06:45.806Z,101113.00
2022-07-26T22:09:12.795Z,101094.56
2022-07-26T22:11:39.506Z,101084.31
2022-07-26T22:14:08.381Z,101078.81
2022-07-26T22:16:35.629Z,101106.84
2022-07-26T22:19:02.561Z,101112.06
2022-07-26T22:21:29.266Z,101085.56
2022-07-26T22:23:55.814Z,101085.69
2022-07-26T22:26:26.135Z,101085.56
2022-07-26T22:28:52.884Z,101100.31
2022-07-26T22:31:19.614Z,101114.81
2022-07-26T22:33:48.463Z,101093.50
2022-07-26T22:36:15.223Z,101096.41
2022-07-26T22:38:41.845Z,101117.53
2022-07-26T22:41:08.404Z,101079.31
2022-07-26T22:43:34.933Z,101114.91
2022-07-26T22:46:01.510Z,101103.72
2022-07-26T22:48:28.119Z,101115.44
2022-07-26T22:50:54.733Z,101089.03
2022-07-26T22:53:21.780Z,101124.53
2022-07-26T22:55:48.312Z,101086.47
2022-07-26T22:58:14.900Z,101111.66
2022-07-26T23:00:41.754Z,101122.16
2022-07-26T23:03:19.794Z,101120.91
2022-07-26T23:05:48.013Z,101111.59
2022-07-26T23:08:46.377Z,101133.84
2022-07-26T23:11:01.896Z,101131.56
2022-07-26T23:13:28.484Z,101130.72
2022-07-26T23:16:00.373Z,101131.59
2022-07-26T23:18:28.565Z,101129.69
2022-07-26T23:20:55.102Z,101127.84
2022-07-26T23:23:22.047Z,101126.41
2022-07-26T23:25:51.143Z,101123.44
2022-07-26T23:28:35.668Z,101129.69
2022-07-26T23:31:03.733Z,101082.03
2022-07-26T23:33:53.045Z,101121.25
2022-07-26T23:36:16.875Z,101135.09
2022-07-26T23:38:43.759Z,101098.41
2022-07-26T23:41:10.434Z,101092.13
2022-07-26T23:43:37.071Z,101127.44
2022-07-26T23:46:03.617Z,101132.81
2022-07-26T23:48:30.550Z,101078.78
2022-07-26T23:50:57.502Z,101092.50
2022-07-26T23:53:26.654Z,101076.63
2022-07-26T23:55:54.096Z,101131.31
2022-07-26T23:58:20.988Z,101129.97
